createdAt,value
2022-09-03T00:02:33.631Z,100568.72
2022-09-03T00:05:09.975Z,100576.41
2022-09-03T00:08:33.612Z,100567.69
2022-09-03T00:15:04.119Z,100568.91
2022-09-03T00:17:59.008Z,100569.00
2022-09-03T00:20:46.945Z,100573.59
2022-09-03T00:23:26.715Z,100576.84
2022-09-03T00:26:11.170Z,100574.41
2022-09-03T00:28:51.299Z,100574.19
2022-09-03T00:31:38.898Z,100575.59
2022-09-03T00:34:41.411Z,100563.72
2022-09-03T00:37:14.263Z,100567.94
2022-09-03T00:39:44.225Z,100563.53
2022-09-03T00:42:39.835Z,100573.56
2022-09-03T00:45:50.448Z,100560.88
2022-09-03T00:48:32.227Z,100554.59
2022-09-03T00:51:35.237Z,100558.00
2022-09-03T00:54:33.963Z,100559.94
2022-09-03T00:57:40.186Z,100567.63
2022-09-03T01:00:14.214Z,100560.06
2022-09-03T01:03:08.627Z,100564.50
2022-09-03T01:06:12.639Z,100563.56
2022-09-03T01:09:09.483Z,100557.31
2022-09-03T01:12:41.684Z,100558.34
2022-09-03T01:15:44.094Z,100567.09
2022-09-03T01:18:35.729Z,100556.50
2022-09-03T01:22:05.445Z,100564.66
2022-09-03T01:25:17.624Z,100563.25
2022-09-03T01:28:42.773Z,100563.16
2022-09-03T01:31:52.651Z,100564.56
2022-09-03T01:35:08.875Z,100562.72
2022-09-03T01:38:05.644Z,100569.56
2022-09-03T01:41:25.216Z,100573.38
2022-09-03T01:44:40.463Z,100568.03
2022-09-03T01:47:54.508Z,100567.34
2022-09-03T01:50:46.507Z,100569.84
2022-09-03T01:54:05.340Z,100567.84
2022-09-03T01:57:35.621Z,100565.06
2022-09-03T02:00:13.761Z,100560.09
2022-09-03T02:02:47.679Z,100558.66
2022-09-03T02:05:25.710Z,100558.88
2022-09-03T02:08:08.219Z,100556.78
2022-09-03T02:11:09.637Z,100560.94
2022-09-03T02:13:52.155Z,100562.00
2022-09-03T02:16:26.855Z,100564.66
2022-09-03T02:19:02.029Z,100571.34
2022-09-03T02:21:38.279Z,100570.16
2022-09-03T02:24:09.324Z,100561.81
2022-09-03T02:26:37.742Z,100563.19
2022-09-03T02:29:05.787Z,100556.66
2022-09-03T02:31:33.872Z,100559.78
2022-09-03T02:34:01.930Z,100561.31
2022-09-03T02:36:42.772Z,100567.41
2022-09-03T02:39:10.772Z,100562.19
2022-09-03T02:41:39.254Z,100569.56
2022-09-03T02:44:24.001Z,100563.53
2022-09-03T02:47:02.664Z,100567.72
2022-09-03T02:49:31.858Z,100560.34
2022-09-03T02:52:12.208Z,100564.59
2022-09-03T02:54:40.907Z,100561.69
2022-09-03T02:57:16.245Z,100568.25
2022-09-03T02:59:48.428Z,100566.97
2022-09-03T03:02:16.744Z,100564.41
2022-09-03T03:04:45.160Z,100558.22
2022-09-03T03:07:13.416Z,100562.50
2022-09-03T03:09:41.638Z,100566.28
2022-09-03T03:12:10.296Z,100558.97
2022-09-03T03:14:38.560Z,100558.00
2022-09-03T03:17:06.808Z,100558.66
2022-09-03T03:19:34.937Z,100561.63
2022-09-03T03:22:03.247Z,100559.88
2022-09-03T03:24:31.455Z,100556.13
2022-09-03T03:26:59.679Z,100557.97
2022-09-03T03:29:28.353Z,100557.47
2022-09-03T03:31:56.898Z,100551.75
2022-09-03T03:34:25.103Z,100552.78
2022-09-03T03:36:53.441Z,100549.50
2022-09-03T03:39:21.690Z,100555.75
2022-09-03T03:41:50.129Z,100552.81
2022-09-03T03:44:20.173Z,100556.13
2022-09-03T03:46:48.404Z,100550.41
2022-09-03T03:49:16.742Z,100548.66
2022-09-03T03:51:45.370Z,100555.34
2022-09-03T03:54:14.490Z,100554.41
2022-09-03T03:56:46.905Z,100553.41
2022-09-03T03:59:23.910Z,100551.25
2022-09-03T04:01:55.498Z,100551.94
2022-09-03T04:04:23.917Z,100539.84
2022-09-03T04:06:52.871Z,100546.06
2022-09-03T04:09:21.305Z,100542.34
2022-09-03T04:11:50.756Z,100545.78
2022-09-03T04:14:19.011Z,100546.44
2022-09-03T04:16:47.544Z,100547.09
2022-09-03T04:19:15.774Z,100551.03
2022-09-03T04:21:44.334Z,100546.13
2022-09-03T04:24:13.066Z,100550.72
2022-09-03T04:26:41.287Z,100549.09
2022-09-03T04:29:10.453Z,100546.63
2022-09-03T04:31:39.408Z,100543.38
2022-09-03T04:34:09.509Z,100540.13
2022-09-03T04:36:37.935Z,100544.84
2022-09-03T04:39:06.124Z,100541.91
2022-09-03T04:41:34.346Z,100546.19
2022-09-03T04:44:02.734Z,100549.28
2022-09-03T04:46:33.105Z,100544.06
2022-09-03T04:49:02.070Z,100551.91
2022-09-03T04:51:31.384Z,100547.50
2022-09-03T04:54:02.093Z,100543.41
2022-09-03T04:56:35.574Z,100548.16
2022-09-03T04:59:09.487Z,100546.03
2022-09-03T05:01:40.231Z,100550.44
2022-09-03T05:04:09.180Z,100547.19
2022-09-03T05:06:37.687Z,100551.91
2022-09-03T05:09:06.456Z,100551.91
2022-09-03T05:11:35.099Z,100555.03
2022-09-03T05:14:05.742Z,100553.06
2022-09-03T05:16:33.775Z,100551.56
2022-09-03T05:19:03.640Z,100553.22
2022-09-03T05:21:32.653Z,100549.63
2022-09-03T05:24:03.008Z,100547.34
2022-09-03T05:26:39.335Z,100537.84
2022-09-03T05:29:08.325Z,100542.25
2022-09-03T05:31:40.347Z,100535.59
2022-09-03T05:34:10.039Z,100538.84
2022-09-03T05:36:38.950Z,100532.97
2022-09-03T05:39:07.897Z,100535.41
2022-09-03T05:41:36.161Z,100541.44
2022-09-03T05:44:05.985Z,100540.31
2022-09-03T05:46:38.451Z,100542.41
2022-09-03T05:49:08.129Z,100543.22
2022-09-03T05:51:39.801Z,100537.84
2022-09-03T05:54:09.387Z,100541.88
2022-09-03T05:56:40.176Z,100541.25
2022-09-03T05:59:10.286Z,100550.03
2022-09-03T06:01:50.787Z,100550.19
2022-09-03T06:04:20.722Z,100543.97
2022-09-03T06:06:49.763Z,100544.13
2022-09-03T06:09:23.277Z,100542.81
2022-09-03T06:11:53.839Z,100539.19
2022-09-03T06:14:22.222Z,100541.66
2022-09-03T06:16:52.620Z,100545.06
2022-09-03T06:19:20.927Z,100549.31
2022-09-03T06:21:49.726Z,100551.44
2022-09-03T06:24:26.299Z,100553.34
2022-09-03T06:26:57.183Z,100554.13
2022-09-03T06:29:26.896Z,100559.16
2022-09-03T06:31:55.879Z,100557.00
2022-09-03T06:34:27.089Z,100561.22
2022-09-03T06:36:55.590Z,100555.59
2022-09-03T06:39:24.617Z,100559.50
2022-09-03T06:41:53.440Z,100558.63
2022-09-03T06:44:28.471Z,100551.38
2022-09-03T06:47:00.303Z,100550.81
2022-09-03T06:49:28.358Z,100553.06
2022-09-03T06:51:56.839Z,100556.25
2022-09-03T06:54:25.113Z,100553.78
2022-09-03T06:56:53.562Z,100551.72
2022-09-03T06:59:21.792Z,100551.97
2022-09-03T07:01:50.210Z,100555.53
2022-09-03T07:04:20.227Z,100556.56
2022-09-03T07:06:48.659Z,100551.75
2022-09-03T07:09:18.858Z,100553.63
2022-09-03T07:11:48.588Z,100545.97
2022-09-03T07:14:19.431Z,100551.91
2022-09-03T07:16:49.593Z,100560.31
2022-09-03T07:19:18.283Z,100561.72
2022-09-03T07:21:50.233Z,100560.94
2022-09-03T07:24:21.847Z,100557.34
2022-09-03T07:26:50.118Z,100559.56
2022-09-03T07:29:21.850Z,100565.16
2022-09-03T07:31:52.174Z,100555.03
2022-09-03T07:34:25.538Z,100552.94
2022-09-03T07:36:54.843Z,100554.06
2022-09-03T07:39:22.982Z,100557.56
2022-09-03T07:41:51.467Z,100552.19
2022-09-03T07:44:20.222Z,100552.88
2022-09-03T07:46:50.886Z,100542.38
2022-09-03T07:49:21.583Z,100539.81
2022-09-03T07:51:54.349Z,100543.72
2022-09-03T07:54:25.986Z,100544.84
2022-09-03T07:56:53.991Z,100553.16
2022-09-03T07:59:22.955Z,100544.72
2022-09-03T08:01:52.933Z,100539.03
2022-09-03T08:04:21.970Z,100549.81
2022-09-03T08:06:49.945Z,100538.44
2022-09-03T08:09:17.929Z,100539.56
2022-09-03T08:11:45.872Z,100548.13
2022-09-03T08:14:14.883Z,100536.84
2022-09-03T08:16:47.933Z,100541.81
2022-09-03T08:19:20.908Z,100543.59
2022-09-03T08:21:48.942Z,100546.63
2022-09-03T08:24:21.239Z,100544.00
2022-09-03T08:26:52.221Z,100545.06
2022-09-03T08:29:21.544Z,100546.56
2022-09-03T08:31:49.895Z,100535.63
2022-09-03T08:34:19.395Z,100539.41
2022-09-03T08:36:47.779Z,100535.13
2022-09-03T08:39:16.682Z,100531.38
2022-09-03T08:41:53.546Z,100537.91
2022-09-03T08:44:30.804Z,100539.31
2022-09-03T08:47:12.130Z,100533.47
2022-09-03T08:50:31.350Z,100538.53
2022-09-03T08:53:57.959Z,100533.75
2022-09-03T08:56:29.293Z,100531.09
2022-09-03T08:58:57.883Z,100535.91
2022-09-03T09:01:57.445Z,100533.06
2022-09-03T09:04:48.120Z,100533.84
2022-09-03T09:07:53.377Z,100524.84
2022-09-03T09:10:45.399Z,100526.53
2022-09-03T09:13:40.752Z,100526.66
2022-09-03T09:16:33.264Z,100525.19
2022-09-03T09:19:15.999Z,100519.75
2022-09-03T09:21:56.613Z,100529.09
2022-09-03T09:24:39.939Z,100524.34
2022-09-03T09:27:10.809Z,100522.50
2022-09-03T09:29:42.858Z,100516.84
2022-09-03T09:32:12.792Z,100520.59
2022-09-03T09:34:41.419Z,100516.59
2022-09-03T09:37:16.005Z,100515.53
2022-09-03T09:40:00.681Z,100507.59
2022-09-03T09:42:31.582Z,100514.53
2022-09-03T09:45:10.035Z,100515.06
2022-09-03T09:47:42.432Z,100506.75
2022-09-03T09:50:24.441Z,100504.84
2022-09-03T09:53:16.180Z,100493.34
2022-09-03T09:55:58.064Z,100499.44
2022-09-03T09:58:30.782Z,100490.75
2022-09-03T10:01:15.125Z,100492.50
2022-09-03T10:03:56.836Z,100487.41
2022-09-03T10:06:48.632Z,100488.34
2022-09-03T10:09:31.076Z,100485.94
2022-09-03T10:12:40.081Z,100484.84
2022-09-03T10:15:40.968Z,100480.25
2022-09-03T10:18:18.234Z,100472.28
2022-09-03T10:21:06.168Z,100479.53
2022-09-03T10:24:15.521Z,100475.50
2022-09-03T10:26:47.103Z,100477.09
2022-09-03T10:29:23.460Z,100470.69
2022-09-03T10:32:59.999Z,100477.53
2022-09-03T10:35:46.201Z,100473.59
2022-09-03T10:38:34.567Z,100463.97
2022-09-03T10:41:41.421Z,100478.88
2022-09-03T10:44:25.863Z,100456.94
2022-09-03T10:47:32.291Z,100456.91
2022-09-03T10:50:25.527Z,100451.78
2022-09-03T10:53:26.252Z,100450.00
2022-09-03T10:55:54.057Z,100454.72
2022-09-03T10:58:48.783Z,100444.06
2022-09-03T11:01:46.632Z,100445.78
2022-09-03T11:04:37.729Z,100438.88
2022-09-03T11:07:13.425Z,100423.22
2022-09-03T11:10:09.851Z,100431.16
2022-09-03T11:13:04.898Z,100437.75
2022-09-03T11:16:05.110Z,100425.81
2022-09-03T11:18:41.322Z,100423.28
2022-09-03T11:21:14.916Z,100428.28
2022-09-03T11:23:48.216Z,100430.78
2022-09-03T11:26:19.904Z,100421.94
2022-09-03T11:29:26.761Z,100420.03
2022-09-03T11:32:26.699Z,100412.44
2022-09-03T11:35:31.684Z,100407.34
2022-09-03T11:38:21.169Z,100417.06
2022-09-03T11:41:22.762Z,100412.75
2022-09-03T11:43:59.111Z,100414.66
2022-09-03T11:46:34.079Z,100409.56
2022-09-03T11:49:14.023Z,100403.28
2022-09-03T11:52:02.100Z,100399.09
2022-09-03T11:54:46.158Z,100406.50
2022-09-03T11:57:43.670Z,100405.38
2022-09-03T12:00:21.657Z,100395.97
2022-09-03T12:03:17.914Z,100390.91
2022-09-03T12:06:27.434Z,100396.91
2022-09-03T12:09:39.224Z,100387.41
2022-09-03T12:13:01.016Z,100393.38
2022-09-03T12:16:24.861Z,100385.34
2022-09-03T12:19:00.342Z,100398.31
2022-09-03T12:21:28.969Z,100397.44
2022-09-03T12:24:03.019Z,100392.81
2022-09-03T12:26:42.569Z,100402.50
2022-09-03T12:29:28.479Z,100401.84
2022-09-03T12:32:10.154Z,100397.25
2022-09-03T12:34:38.326Z,100400.56
2022-09-03T12:40:29.296Z,100390.16
2022-09-03T12:46:14.411Z,100377.22
2022-09-03T12:51:53.363Z,100375.84
2022-09-03T12:54:23.475Z,100370.66
2022-09-03T12:56:58.784Z,100372.66
2022-09-03T12:59:31.184Z,100369.06
2022-09-03T13:02:18.092Z,100363.75
2022-09-03T13:04:47.367Z,100364.91
2022-09-03T13:07:28.829Z,100372.50
2022-09-03T13:10:06.857Z,100367.16
2022-09-03T13:12:53.611Z,100358.25
2022-09-03T13:15:26.508Z,100360.69
2022-09-03T13:18:22.405Z,100350.72
2022-09-03T13:22:04.187Z,100345.31
2022-09-03T13:25:20.283Z,100342.25
2022-09-03T13:28:03.869Z,100351.97
2022-09-03T13:31:03.751Z,100347.75
2022-09-03T13:33:45.466Z,100358.28
2022-09-03T13:36:37.696Z,100345.41
2022-09-03T13:39:38.590Z,100335.59
2022-09-03T13:42:40.899Z,100350.63
2022-09-03T13:45:43.227Z,100353.47
2022-09-03T13:48:55.932Z,100354.03
2022-09-03T13:51:56.764Z,100350.56
2022-09-03T13:54:49.023Z,100351.22
2022-09-03T13:57:41.135Z,100348.53
2022-09-03T14:00:24.975Z,100344.03
2022-09-03T14:03:32.177Z,100338.16
2022-09-03T14:06:42.608Z,100331.13
2022-09-03T14:10:04.065Z,100340.28
2022-09-03T14:12:55.968Z,100346.31
2022-09-03T14:16:16.075Z,100349.44
2022-09-03T14:18:58.512Z,100341.66
2022-09-03T14:21:59.798Z,100333.84
2022-09-03T14:24:30.906Z,100345.31
2022-09-03T14:27:02.637Z,100330.72
2022-09-03T14:29:34.786Z,100337.69
2022-09-03T14:32:35.723Z,100345.13
2022-09-03T14:39:27.722Z,100342.94
2022-09-03T14:42:18.892Z,100339.16
2022-09-03T14:45:33.023Z,100353.91
2022-09-03T14:48:37.315Z,100341.91
2022-09-03T14:51:21.088Z,100343.31
2022-09-03T14:54:51.125Z,100347.06
2022-09-03T14:58:16.700Z,100341.97
2022-09-03T15:01:00.345Z,100344.13
2022-09-03T15:04:03.885Z,100354.13
2022-09-03T15:07:02.225Z,100352.09
2022-09-03T15:10:02.423Z,100350.31
2022-09-03T15:12:53.001Z,100360.28
2022-09-03T15:15:43.752Z,100361.78
2022-09-03T15:18:44.689Z,100363.34
2022-09-03T15:21:40.214Z,100361.88
2022-09-03T15:25:14.279Z,100372.22
2022-09-03T15:28:24.580Z,100372.50
2022-09-03T15:31:52.689Z,100367.06
2022-09-03T15:34:56.831Z,100378.19
2022-09-03T15:37:38.944Z,100371.84
2022-09-03T15:40:32.477Z,100371.78
2022-09-03T15:43:21.791Z,100378.50
2022-09-03T15:47:12.224Z,100379.06
2022-09-03T15:49:54.689Z,100360.34
2022-09-03T15:52:33.581Z,100367.16
2022-09-03T15:55:34.428Z,100366.88
2022-09-03T15:58:35.957Z,100369.69
2022-09-03T16:01:45.874Z,100358.28
2022-09-03T16:04:16.638Z,100352.47
2022-09-03T16:07:01.034Z,100357.09
2022-09-03T16:10:07.873Z,100370.97
2022-09-03T16:13:27.657Z,100358.03
2022-09-03T16:16:06.118Z,100361.44
2022-09-03T16:18:49.765Z,100364.31
2022-09-03T16:21:38.585Z,100373.53
2022-09-03T16:24:28.831Z,100367.19
2022-09-03T16:27:36.198Z,100365.94
2022-09-03T16:30:10.598Z,100365.59
2022-09-03T16:33:09.439Z,100358.16
2022-09-03T16:35:57.064Z,100363.78
2022-09-03T16:38:49.190Z,100372.63
2022-09-03T16:42:07.477Z,100375.75
2022-09-03T16:45:06.747Z,100375.56
2022-09-03T16:48:14.242Z,100376.81
2022-09-03T16:50:48.320Z,100380.09
2022-09-03T16:53:40.032Z,100377.72
2022-09-03T16:56:59.775Z,100389.09
2022-09-03T17:00:05.087Z,100386.25
2022-09-03T17:03:29.756Z,100383.47
2022-09-03T17:06:36.729Z,100390.09
2022-09-03T17:09:54.220Z,100395.97
2022-09-03T17:12:38.849Z,100399.59
2022-09-03T17:16:24.660Z,100397.81
2022-09-03T17:19:33.172Z,100408.50
2022-09-03T17:22:28.222Z,100406.53
2022-09-03T17:25:07.180Z,100412.81
2022-09-03T17:28:03.736Z,100412.09
2022-09-03T17:30:57.186Z,100407.38
2022-09-03T17:33:54.484Z,100412.41
2022-09-03T17:36:31.322Z,100404.84
2022-09-03T17:39:42.810Z,100414.34
2022-09-03T17:42:40.071Z,100414.34
2022-09-03T17:45:38.068Z,100428.16
2022-09-03T17:48:46.225Z,100429.34
2022-09-03T17:51:48.071Z,100425.16
2022-09-03T17:54:28.018Z,100434.75
2022-09-03T17:57:38.210Z,100436.28
2022-09-03T18:00:12.213Z,100441.16
2022-09-03T18:03:03.149Z,100448.47
2022-09-03T18:05:48.333Z,100448.75
2022-09-03T18:09:17.627Z,100454.41
2022-09-03T18:11:57.701Z,100451.53
2022-09-03T18:15:21.493Z,100460.50
2022-09-03T18:18:05.588Z,100451.72
2022-09-03T18:21:30.901Z,100471.34
2022-09-03T18:25:02.415Z,100473.50
2022-09-03T18:28:15.121Z,100477.75
2022-09-03T18:31:07.813Z,100482.47
2022-09-03T18:33:55.646Z,100483.94
2022-09-03T18:36:47.364Z,100485.66
2022-09-03T18:39:47.194Z,100484.56
2022-09-03T18:43:21.635Z,100488.25
2022-09-03T18:50:12.448Z,100503.78
2022-09-03T18:53:08.345Z,100500.16
2022-09-03T18:56:55.536Z,100501.81
2022-09-03T19:00:09.644Z,100501.44
2022-09-03T19:03:18.105Z,100516.00
2022-09-03T19:06:54.291Z,100496.63
2022-09-03T19:10:09.465Z,100515.97
2022-09-03T19:13:44.345Z,100517.97
2022-09-03T19:17:09.503Z,100526.47
2022-09-03T19:20:29.073Z,100523.22
2022-09-03T19:23:15.700Z,100519.97
2022-09-03T19:26:02.368Z,100526.41
2022-09-03T19:28:52.218Z,100534.41
2022-09-03T19:32:11.710Z,100544.88
2022-09-03T19:35:26.434Z,100544.00
2022-09-03T19:38:43.486Z,100548.03
2022-09-03T19:41:44.389Z,100551.16
2022-09-03T19:45:17.068Z,100554.81
2022-09-03T19:48:41.387Z,100563.97
2022-09-03T19:51:48.801Z,100560.63
2022-09-03T19:54:43.612Z,100562.19
2022-09-03T19:57:33.288Z,100560.53
2022-09-03T20:00:31.296Z,100555.31
2022-09-03T20:03:21.561Z,100553.97
2022-09-03T20:06:13.356Z,100551.53
2022-09-03T20:08:59.982Z,100556.75
2022-09-03T20:11:30.508Z,100562.69
2022-09-03T20:14:23.395Z,100577.47
2022-09-03T20:16:54.401Z,100577.09
2022-09-03T20:19:58.135Z,100579.41
2022-09-03T20:23:14.369Z,100579.81
2022-09-03T20:26:09.782Z,100590.66
2022-09-03T20:29:12.299Z,100596.13
2022-09-03T20:32:25.211Z,100598.94
2022-09-03T20:35:38.419Z,100602.38
2022-09-03T20:38:32.376Z,100612.47
2022-09-03T20:42:15.641Z,100611.25
2022-09-03T20:45:23.197Z,100609.44
2022-09-03T20:49:00.664Z,100611.38
2022-09-03T20:51:41.069Z,100614.91
2022-09-03T20:55:05.786Z,100616.88
2022-09-03T20:57:55.460Z,100617.53
2022-09-03T21:00:50.904Z,100618.25
2022-09-03T21:03:27.721Z,100624.94
2022-09-03T21:06:33.456Z,100614.41
2022-09-03T21:10:07.213Z,100623.94
2022-09-03T21:13:06.433Z,100621.34
2022-09-03T21:16:01.646Z,100625.25
2022-09-03T21:19:25.815Z,100625.13
2022-09-03T21:22:41.933Z,100623.41
2022-09-03T21:25:17.590Z,100623.66
2022-09-03T21:27:59.753Z,100632.72
2022-09-03T21:30:30.193Z,100643.09
2022-09-03T21:33:29.323Z,100635.69
2022-09-03T21:36:31.388Z,100641.19
2022-09-03T21:39:15.626Z,100647.34
2022-09-03T21:42:26.371Z,100649.84
2022-09-03T21:45:07.533Z,100644.44
2022-09-03T21:47:48.002Z,100643.94
2022-09-03T21:50:23.150Z,100649.81
2022-09-03T21:53:20.566Z,100661.69
2022-09-03T21:56:36.007Z,100663.53
2022-09-03T21:59:20.193Z,100664.22
2022-09-03T22:02:27.177Z,100664.03
2022-09-03T22:04:57.954Z,100671.13
2022-09-03T22:07:55.799Z,100668.63
2022-09-03T22:11:28.687Z,100674.88
2022-09-03T22:14:12.507Z,100669.47
2022-09-03T22:16:58.705Z,100674.56
2022-09-03T22:19:37.351Z,100673.63
2022-09-03T22:22:22.943Z,100671.09
2022-09-03T22:25:13.994Z,100673.34
2022-09-03T22:28:13.310Z,100673.19
2022-09-03T22:31:21.236Z,100672.19
2022-09-03T22:34:20.791Z,100676.47
2022-09-03T22:37:02.439Z,100683.53
2022-09-03T22:39:47.161Z,100682.59
2022-09-03T22:43:01.784Z,100679.25
2022-09-03T22:46:05.115Z,100673.84
2022-09-03T22:48:50.915Z,100679.72
2022-09-03T22:51:21.798Z,100691.19
2022-09-03T22:54:38.148Z,100696.69
2022-09-03T22:57:08.261Z,100688.84
2022-09-03T23:00:06.185Z,100691.56
2022-09-03T23:02:34.578Z,100690.63
2022-09-03T23:05:20.232Z,100693.69
2022-09-03T23:08:06.833Z,100702.16
2022-09-03T23:11:12.014Z,100697.00
2022-09-03T23:13:49.320Z,100691.78
2022-09-03T23:16:54.896Z,100694.94
2022-09-03T23:22:13.132Z,100694.28
2022-09-03T23:24:55.420Z,100696.91
2022-09-03T23:27:47.542Z,100693.50
2022-09-03T23:30:16.689Z,100697.38
2022-09-03T23:32:44.593Z,100702.84
2022-09-03T23:35:19.425Z,100706.38
2022-09-03T23:38:23.974Z,100691.81
2022-09-03T23:40:58.157Z,100700.94
2022-09-03T23:43:38.413Z,100707.94
2022-09-03T23:46:34.568Z,100704.22
2022-09-03T23:49:20.568Z,100707.25
2022-09-03T23:52:20.721Z,100706.34
2022-09-03T23:55:21.536Z,100707.41
2022-09-03T23:58:29.527Z,100706.41
